createdAt,value
2018-06-24T00:00:39.716Z,9.58
2018-06-24T00:03:08.695Z,5.92
2018-06-24T00:05:37.704Z,7.20
2018-06-24T00:08:06.621Z,8.10
2018-06-24T00:10:35.714Z,8.98
2018-06-24T00:13:04.816Z,8.20
2018-06-24T00:15:33.787Z,7.00
2018-06-24T00:18:02.748Z,8.70
2018-06-24T00:20:31.664Z,7.90
2018-06-24T00:23:00.629Z,8.33
2018-06-24T00:25:29.584Z,8.03
2018-06-24T00:27:58.663Z,10.32
2018-06-24T00:30:27.567Z,8.08
2018-06-24T00:32:56.706Z,10.23
2018-06-24T00:35:26.342Z,7.45
2018-06-24T00:37:55.316Z,6.50
2018-06-24T00:40:24.639Z,10.45
2018-06-24T00:42:53.676Z,7.40
2018-06-24T00:45:22.626Z,7.65
2018-06-24T00:47:51.632Z,8.50
2018-06-24T00:50:20.629Z,7.37
2018-06-24T00:52:51.505Z,6.00
2018-06-24T00:55:20.454Z,9.33
2018-06-24T00:57:49.836Z,6.95
2018-06-24T01:00:19.325Z,7.00
2018-06-24T01:02:48.247Z,9.23
2018-06-24T01:05:17.296Z,8.10
2018-06-24T01:07:46.539Z,7.35
2018-06-24T01:10:15.533Z,7.55
2018-06-24T01:12:44.448Z,9.58
2018-06-24T01:15:13.394Z,10.90
2018-06-24T01:17:42.427Z,7.37
2018-06-24T01:20:11.468Z,7.35
2018-06-24T01:22:40.400Z,6.28
2018-06-24T01:25:09.380Z,7.42
2018-06-24T01:27:38.322Z,11.15
2018-06-24T01:30:07.303Z,7.42
2018-06-24T01:32:36.763Z,8.43
2018-06-24T01:35:05.727Z,16.75
2018-06-24T01:37:34.710Z,8.05
2018-06-24T01:40:03.660Z,9.48
2018-06-24T01:42:32.649Z,11.28
2018-06-24T01:45:01.583Z,7.90
2018-06-24T01:47:30.586Z,8.85
2018-06-24T01:49:59.588Z,8.95
2018-06-24T01:52:28.535Z,11.10
2018-06-24T01:54:57.486Z,8.40
2018-06-24T01:57:26.416Z,8.65
2018-06-24T01:59:55.407Z,10.53
2018-06-24T02:02:24.322Z,9.30
2018-06-24T02:04:53.223Z,8.85
2018-06-24T02:07:22.157Z,9.60
2018-06-24T02:09:51.093Z,9.43
2018-06-24T02:12:20.525Z,16.85
2018-06-24T02:14:56.601Z,8.83
2018-06-24T02:17:27.316Z,8.10
2018-06-24T02:19:56.250Z,10.60
2018-06-24T02:22:25.800Z,10.80
2018-06-24T02:24:54.750Z,11.18
2018-06-24T02:27:23.733Z,9.45
2018-06-24T02:29:52.693Z,8.75
2018-06-24T02:32:21.677Z,7.62
2018-06-24T02:34:50.197Z,8.20
2018-06-24T02:37:19.206Z,10.90
2018-06-24T02:39:48.158Z,12.45
2018-06-24T02:42:17.073Z,8.80
2018-06-24T02:44:46.029Z,9.43
2018-06-24T02:47:14.969Z,10.10
2018-06-24T02:49:43.898Z,8.73
2018-06-24T02:52:12.850Z,6.85
2018-06-24T02:54:41.815Z,10.70
2018-06-24T02:57:10.740Z,10.05
2018-06-24T02:59:39.671Z,6.85
2018-06-24T03:02:08.656Z,9.80
2018-06-24T03:04:37.592Z,7.85
2018-06-24T03:07:06.568Z,7.90
2018-06-24T03:09:35.648Z,10.23
2018-06-24T03:12:04.959Z,9.75
2018-06-24T03:14:33.876Z,8.80
2018-06-24T03:17:02.815Z,8.43
2018-06-24T03:19:32.340Z,8.80
2018-06-24T03:22:01.556Z,10.65
2018-06-24T03:24:31.076Z,7.40
2018-06-24T03:27:00.022Z,6.85
2018-06-24T03:29:28.931Z,9.93
2018-06-24T03:31:57.885Z,11.03
2018-06-24T03:34:26.843Z,6.75
2018-06-24T03:36:55.817Z,8.45
2018-06-24T03:39:24.976Z,5.80
2018-06-24T03:41:53.964Z,7.12
2018-06-24T03:44:22.892Z,5.22
2018-06-24T03:46:52.028Z,6.85
2018-06-24T03:49:21.447Z,7.05
2018-06-24T03:51:50.370Z,5.45
2018-06-24T03:54:19.339Z,7.62
2018-06-24T03:56:48.320Z,4.80
2018-06-24T03:59:17.252Z,5.92
2018-06-24T04:01:46.238Z,5.03
2018-06-24T04:04:15.190Z,6.45
2018-06-24T04:06:44.105Z,7.80
2018-06-24T04:09:13.571Z,7.67
2018-06-24T04:11:42.540Z,6.25
2018-06-24T04:14:11.498Z,5.30
2018-06-24T04:16:40.418Z,5.87
2018-06-24T04:19:08.949Z,6.30
2018-06-24T04:21:38.446Z,6.75
2018-06-24T04:24:07.594Z,4.40
2018-06-24T04:26:36.542Z,4.75
2018-06-24T04:29:05.462Z,4.22
2018-06-24T04:31:34.429Z,3.40
2018-06-24T04:34:03.370Z,5.25
2018-06-24T04:36:32.400Z,5.03
2018-06-24T04:39:01.337Z,4.28
2018-06-24T04:41:30.404Z,4.87
2018-06-24T04:43:59.914Z,5.83
2018-06-24T04:46:28.485Z,4.12
2018-06-24T04:48:57.410Z,3.47
2018-06-24T04:51:26.333Z,4.97
2018-06-24T04:53:55.302Z,4.83
2018-06-24T04:56:24.768Z,6.08
2018-06-24T04:58:53.754Z,3.83
2018-06-24T05:01:22.841Z,6.10
2018-06-24T05:03:51.780Z,3.92
2018-06-24T05:06:21.269Z,4.42
2018-06-24T05:08:50.228Z,3.50
2018-06-24T05:11:19.251Z,3.08
2018-06-24T05:13:48.634Z,4.20
2018-06-24T05:16:18.020Z,3.72
2018-06-24T05:18:47.375Z,3.80
2018-06-24T05:21:16.306Z,3.12
2018-06-24T05:23:45.239Z,2.55
2018-06-24T05:26:14.169Z,3.10
2018-06-24T05:28:43.082Z,3.60
2018-06-24T05:31:12.037Z,3.20
2018-06-24T05:33:40.942Z,2.45
2018-06-24T05:36:09.918Z,3.90
2018-06-24T05:38:38.822Z,1.87
2018-06-24T05:41:08.347Z,2.30
2018-06-24T05:43:37.276Z,3.83
2018-06-24T05:46:06.251Z,3.08
2018-06-24T05:48:35.156Z,2.95
2018-06-24T05:51:04.136Z,2.10
2018-06-24T05:53:33.456Z,2.22
2018-06-24T05:56:02.366Z,3.02
2018-06-24T05:58:31.319Z,1.95
2018-06-24T06:01:00.271Z,2.60
2018-06-24T06:03:29.285Z,2.20
2018-06-24T06:05:58.236Z,4.05
2018-06-24T06:08:27.240Z,1.87
2018-06-24T06:10:56.208Z,1.60
2018-06-24T06:13:25.140Z,1.90
2018-06-24T06:15:54.084Z,2.72
2018-06-24T06:18:23.085Z,1.92
2018-06-24T06:20:52.110Z,1.30
2018-06-24T06:23:21.034Z,1.70
2018-06-24T06:25:49.977Z,1.42
2018-06-24T06:28:18.900Z,3.20
2018-06-24T06:30:47.863Z,5.33
2018-06-24T06:33:16.807Z,1.17
2018-06-24T06:35:45.790Z,1.47
2018-06-24T06:38:14.719Z,1.60
2018-06-24T06:40:43.680Z,2.75
2018-06-24T06:43:12.612Z,1.30
2018-06-24T06:45:41.736Z,1.57
2018-06-24T06:48:11.053Z,1.20
2018-06-24T06:50:40.144Z,1.32
2018-06-24T06:53:09.055Z,3.77
2018-06-24T06:55:37.981Z,2.10
2018-06-24T06:58:06.971Z,2.17
2018-06-24T07:00:35.872Z,3.37
2018-06-24T07:03:05.030Z,2.62
2018-06-24T07:05:33.996Z,2.60
2018-06-24T07:08:03.000Z,3.15
2018-06-24T07:10:31.989Z,2.92
2018-06-24T07:13:00.977Z,2.60
2018-06-24T07:15:29.916Z,2.65
2018-06-24T07:17:58.862Z,3.08
2018-06-24T07:20:27.785Z,2.70
2018-06-24T07:22:56.751Z,2.30
2018-06-24T07:25:25.691Z,2.42
2018-06-24T07:27:54.607Z,2.65
2018-06-24T07:30:23.568Z,3.17
2018-06-24T07:32:52.478Z,2.75
2018-06-24T07:35:21.435Z,2.40
2018-06-24T07:37:50.380Z,2.45
2018-06-24T07:40:19.352Z,2.95
2018-06-24T07:42:48.359Z,2.80
2018-06-24T07:45:16.996Z,2.87
2018-06-24T07:47:45.963Z,2.67
2018-06-24T07:50:14.956Z,3.08
2018-06-24T07:52:43.858Z,2.40
2018-06-24T07:55:12.811Z,2.55
2018-06-24T07:57:41.766Z,2.30
2018-06-24T08:00:10.691Z,2.65
2018-06-24T08:02:39.690Z,3.55
2018-06-24T08:05:08.694Z,2.50
2018-06-24T08:07:37.678Z,2.37
2018-06-24T08:10:06.634Z,2.87
2018-06-24T08:12:35.601Z,3.35
2018-06-24T08:15:04.668Z,2.75
2018-06-24T08:17:33.692Z,2.22
2018-06-24T08:20:02.617Z,2.20
2018-06-24T08:22:31.705Z,2.35
2018-06-24T08:25:00.666Z,1.90
2018-06-24T08:27:29.695Z,2.27
2018-06-24T08:29:58.668Z,2.05
2018-06-24T08:32:27.601Z,2.60
2018-06-24T08:34:56.566Z,2.65
2018-06-24T08:37:25.496Z,2.85
2018-06-24T08:39:54.968Z,2.20
2018-06-24T08:42:23.907Z,3.52
2018-06-24T08:44:52.842Z,1.95
2018-06-24T08:47:21.842Z,3.65
2018-06-24T08:49:50.847Z,3.05
2018-06-24T08:52:19.823Z,5.97
2018-06-24T08:54:48.812Z,2.60
2018-06-24T08:57:17.745Z,1.50
2018-06-24T08:59:46.735Z,1.45
2018-06-24T09:02:15.958Z,1.37
2018-06-24T09:04:45.040Z,1.30
2018-06-24T09:07:14.021Z,1.70
2018-06-24T09:09:42.928Z,1.95
2018-06-24T09:12:11.968Z,2.70
2018-06-24T09:14:40.974Z,2.10
2018-06-24T09:17:09.944Z,1.20
2018-06-24T09:19:39.039Z,0.90
2018-06-24T09:22:08.154Z,1.15
2018-06-24T09:24:37.165Z,1.57
2018-06-24T09:27:06.159Z,1.30
2018-06-24T09:29:36.178Z,2.10
2018-06-24T09:32:05.108Z,1.00
2018-06-24T09:34:34.139Z,1.55
2018-06-24T09:37:03.063Z,1.60
2018-06-24T09:39:32.092Z,2.45
2018-06-24T09:42:01.144Z,4.40
2018-06-24T09:44:32.475Z,3.95
2018-06-24T09:47:02.738Z,1.25
2018-06-24T09:49:31.952Z,2.27
2018-06-24T09:52:00.927Z,2.00
2018-06-24T09:54:29.900Z,1.10
2018-06-24T09:56:58.864Z,1.00
2018-06-24T09:59:27.824Z,1.40
2018-06-24T10:01:56.816Z,1.50
2018-06-24T10:04:25.746Z,1.77
2018-06-24T10:06:55.717Z,2.47
2018-06-24T10:09:24.746Z,2.10
2018-06-24T10:11:54.983Z,1.60
2018-06-24T10:14:23.925Z,1.67
2018-06-24T10:16:52.912Z,2.22
2018-06-24T10:19:21.859Z,2.20
2018-06-24T10:21:50.784Z,2.00
2018-06-24T10:24:19.703Z,2.30
2018-06-24T10:26:48.657Z,1.60
2018-06-24T10:29:18.028Z,2.65
2018-06-24T10:31:47.683Z,2.08
2018-06-24T10:34:16.609Z,3.52
2018-06-24T10:36:45.587Z,1.90
2018-06-24T10:39:14.563Z,1.72
2018-06-24T10:41:43.465Z,1.45
2018-06-24T10:44:12.403Z,1.52
2018-06-24T10:46:41.865Z,1.40
2018-06-24T10:49:10.828Z,3.00
2018-06-24T10:51:40.317Z,2.02
2018-06-24T10:54:09.262Z,2.50
2018-06-24T10:56:38.190Z,3.20
2018-06-24T10:59:07.800Z,5.20
2018-06-24T11:01:36.721Z,2.20
2018-06-24T11:04:05.776Z,4.62
2018-06-24T11:06:34.748Z,2.72
2018-06-24T11:09:03.882Z,2.77
2018-06-24T11:11:32.930Z,1.82
2018-06-24T11:14:01.905Z,2.10
2018-06-24T11:16:30.924Z,1.87
2018-06-24T11:18:59.844Z,2.40
2018-06-24T11:21:29.132Z,1.70
2018-06-24T11:23:58.105Z,2.05
2018-06-24T11:26:27.140Z,1.70
2018-06-24T11:28:56.202Z,1.70
2018-06-24T11:31:25.755Z,1.75
2018-06-24T11:33:54.703Z,1.82
2018-06-24T11:36:23.708Z,2.40
2018-06-24T11:38:52.686Z,3.58
2018-06-24T11:41:21.591Z,3.27
2018-06-24T11:43:50.578Z,2.10
2018-06-24T11:46:19.527Z,2.30
2018-06-24T11:48:48.596Z,1.95
2018-06-24T11:51:17.509Z,2.17
2018-06-24T11:53:47.275Z,2.17
2018-06-24T11:56:16.268Z,1.67
2018-06-24T11:58:44.864Z,1.60
2018-06-24T12:01:13.811Z,1.80
2018-06-24T12:03:42.735Z,3.08
2018-06-24T12:06:11.289Z,3.17
2018-06-24T12:08:40.271Z,3.15
2018-06-24T12:11:09.195Z,2.27
2018-06-24T12:13:38.433Z,2.65
2018-06-24T12:16:07.394Z,1.57
2018-06-24T12:18:36.341Z,2.15
2018-06-24T12:21:05.291Z,2.72
2018-06-24T12:23:34.268Z,1.32
2018-06-24T12:26:03.257Z,1.80
2018-06-24T12:28:32.223Z,3.22
2018-06-24T12:31:01.252Z,1.57
2018-06-24T12:33:30.203Z,1.50
2018-06-24T12:35:59.257Z,2.17
2018-06-24T12:38:28.178Z,2.40
2018-06-24T12:40:57.329Z,2.95
2018-06-24T12:43:26.878Z,1.85
2018-06-24T12:45:55.808Z,1.70
2018-06-24T12:48:24.779Z,1.92
2018-06-24T12:50:53.716Z,2.20
2018-06-24T12:53:22.651Z,3.12
2018-06-24T12:55:51.588Z,4.92
2018-06-24T12:58:21.148Z,1.90
2018-06-24T13:00:50.667Z,4.08
2018-06-24T13:03:19.144Z,2.83
2018-06-24T13:05:48.130Z,2.60
2018-06-24T13:08:17.791Z,3.58
2018-06-24T13:10:46.752Z,2.33
2018-06-24T13:13:15.797Z,2.35
2018-06-24T13:15:44.767Z,1.87
2018-06-24T13:18:13.704Z,3.27
2018-06-24T13:20:42.688Z,1.32
2018-06-24T13:23:12.224Z,2.45
2018-06-24T13:25:41.196Z,1.70
2018-06-24T13:28:10.217Z,5.15
2018-06-24T13:30:39.196Z,2.60
2018-06-24T13:33:07.689Z,3.55
2018-06-24T13:35:37.101Z,2.58
2018-06-24T13:38:05.686Z,3.20
2018-06-24T13:40:34.665Z,2.90
2018-06-24T13:43:03.640Z,1.72
2018-06-24T13:45:32.562Z,2.65
2018-06-24T13:48:01.526Z,1.85
2018-06-24T13:50:30.550Z,2.95
2018-06-24T13:52:59.524Z,1.80
2018-06-24T13:55:28.506Z,3.98
2018-06-24T13:57:57.505Z,2.67
2018-06-24T14:00:26.447Z,7.08
2018-06-24T14:02:55.457Z,2.27
2018-06-24T14:05:24.429Z,2.40
2018-06-24T14:07:53.922Z,2.37
2018-06-24T14:10:22.876Z,2.72
2018-06-24T14:12:51.886Z,2.50
2018-06-24T14:15:20.859Z,2.30
2018-06-24T14:17:49.832Z,3.00
2018-06-24T14:20:18.878Z,2.98
2018-06-24T14:22:47.832Z,2.62
2018-06-24T14:25:16.843Z,2.87
2018-06-24T14:27:45.869Z,3.90
2018-06-24T14:30:15.379Z,2.58
2018-06-24T14:32:44.295Z,2.55
2018-06-24T14:35:13.301Z,2.98
2018-06-24T14:37:42.256Z,1.98
2018-06-24T14:40:11.261Z,3.60
2018-06-24T14:42:40.243Z,4.25
2018-06-24T14:45:09.809Z,2.75
2018-06-24T14:47:38.741Z,4.37
2018-06-24T14:50:07.803Z,2.50
2018-06-24T14:52:36.805Z,2.30
2018-06-24T14:55:05.828Z,2.50
2018-06-24T14:57:34.823Z,2.70
2018-06-24T15:00:03.861Z,4.90
2018-06-24T15:02:35.358Z,2.70
2018-06-24T15:05:05.876Z,2.60
2018-06-24T15:07:35.415Z,2.77
2018-06-24T15:10:04.734Z,2.50
2018-06-24T15:12:33.716Z,2.65
2018-06-24T15:15:02.700Z,3.45
2018-06-24T15:17:31.795Z,2.50
2018-06-24T15:20:00.711Z,2.92
2018-06-24T15:22:29.643Z,2.50
2018-06-24T15:24:58.603Z,2.83
2018-06-24T15:27:28.688Z,3.12
2018-06-24T15:29:57.723Z,4.00
2018-06-24T15:32:26.752Z,3.17
2018-06-24T15:34:55.752Z,2.80
2018-06-24T15:37:24.795Z,3.35
2018-06-24T15:39:53.935Z,4.28
2018-06-24T15:42:22.914Z,3.65
2018-06-24T15:44:51.912Z,2.35
2018-06-24T15:47:20.943Z,2.77
2018-06-24T15:49:50.151Z,2.12
2018-06-24T15:52:19.259Z,2.30
2018-06-24T15:54:48.414Z,6.30
2018-06-24T15:57:17.627Z,2.30
2018-06-24T15:59:47.120Z,3.52
2018-06-24T16:02:16.259Z,3.08
2018-06-24T16:04:45.205Z,4.12
2018-06-24T16:07:14.740Z,4.67
2018-06-24T16:09:43.767Z,4.97
2018-06-24T16:12:12.906Z,5.25
2018-06-24T16:14:42.030Z,4.75
2018-06-24T16:17:11.210Z,5.03
2018-06-24T16:19:40.199Z,3.22
2018-06-24T16:22:09.127Z,3.65
2018-06-24T16:24:38.580Z,4.03
2018-06-24T16:27:07.848Z,3.65
2018-06-24T16:29:36.830Z,8.00
2018-06-24T16:32:07.803Z,3.75
2018-06-24T16:34:36.782Z,3.02
2018-06-24T16:37:05.840Z,3.75
2018-06-24T16:39:35.974Z,2.98
2018-06-24T16:42:04.995Z,3.70
2018-06-24T16:44:34.202Z,5.22
2018-06-24T16:47:03.149Z,3.00
2018-06-24T16:49:32.204Z,3.90
2018-06-24T16:52:01.229Z,3.52
2018-06-24T16:54:30.339Z,2.80
2018-06-24T16:56:59.317Z,4.53
2018-06-24T16:59:28.249Z,2.83
2018-06-24T17:01:57.578Z,5.20
2018-06-24T17:04:26.614Z,4.55
2018-06-24T17:06:55.728Z,2.00
2018-06-24T17:09:25.230Z,2.55
2018-06-24T17:11:54.236Z,3.35
2018-06-24T17:14:23.225Z,3.17
2018-06-24T17:16:52.204Z,2.52
2018-06-24T17:19:21.660Z,4.00
2018-06-24T17:21:51.335Z,1.87
2018-06-24T17:24:20.617Z,3.87
2018-06-24T17:26:49.670Z,1.87
2018-06-24T17:29:18.715Z,2.65
2018-06-24T17:31:49.244Z,1.72
2018-06-24T17:34:18.790Z,1.57
2018-06-24T17:36:47.736Z,2.20
2018-06-24T17:39:16.756Z,4.95
2018-06-24T17:41:46.833Z,2.33
2018-06-24T17:44:16.662Z,1.55
2018-06-24T17:46:45.602Z,2.55
2018-06-24T17:49:14.844Z,3.35
2018-06-24T17:51:43.798Z,2.05
2018-06-24T17:54:12.981Z,2.70
2018-06-24T17:56:42.382Z,3.30
2018-06-24T17:59:12.086Z,2.33
2018-06-24T18:01:41.204Z,2.20
2018-06-24T18:04:10.231Z,3.08
2018-06-24T18:06:40.664Z,1.95
2018-06-24T18:09:11.309Z,3.42
2018-06-24T18:11:40.457Z,2.20
2018-06-24T18:14:09.838Z,2.25
2018-06-24T18:16:39.068Z,2.58
2018-06-24T18:19:08.048Z,2.60
2018-06-24T18:21:37.221Z,2.20
2018-06-24T18:24:06.230Z,3.67
2018-06-24T18:26:35.315Z,4.70
2018-06-24T18:29:04.332Z,2.98
2018-06-24T18:31:32.837Z,2.90
2018-06-24T18:34:01.829Z,2.90
2018-06-24T18:36:31.204Z,3.17
2018-06-24T18:39:00.810Z,5.22
2018-06-24T18:41:30.183Z,2.90
2018-06-24T18:43:59.325Z,3.27
2018-06-24T18:46:28.399Z,3.45
2018-06-24T18:48:57.420Z,2.72
2018-06-24T18:51:26.464Z,3.58
2018-06-24T18:53:55.603Z,3.92
2018-06-24T18:56:24.759Z,4.60
2018-06-24T18:58:53.756Z,7.70
2018-06-24T19:01:22.661Z,3.98
2018-06-24T19:03:51.639Z,4.65
2018-06-24T19:06:20.955Z,4.60
2018-06-24T19:08:49.981Z,4.25
2018-06-24T19:11:19.342Z,4.58
2018-06-24T19:13:48.412Z,5.03
2018-06-24T19:16:25.592Z,4.90
2018-06-24T19:19:06.300Z,5.53
2018-06-24T19:21:47.863Z,5.67
2018-06-24T19:24:33.006Z,5.67
2018-06-24T19:27:23.034Z,5.03
2018-06-24T19:30:05.025Z,4.97
2018-06-24T19:32:57.662Z,4.65
2018-06-24T19:35:41.641Z,4.20
2018-06-24T19:38:10.632Z,5.72
2018-06-24T19:40:39.557Z,8.00
2018-06-24T19:43:08.150Z,5.47
2018-06-24T19:45:37.283Z,4.20
2018-06-24T19:48:07.138Z,3.72
2018-06-24T19:50:36.108Z,6.97
2018-06-24T19:53:05.175Z,4.85
2018-06-24T19:55:36.571Z,4.15
2018-06-24T19:58:05.823Z,4.65
2018-06-24T20:00:36.678Z,5.58
2018-06-24T20:03:05.900Z,4.85
2018-06-24T20:05:34.891Z,5.62
2018-06-24T20:08:04.189Z,3.95
2018-06-24T20:10:33.272Z,4.25
2018-06-24T20:13:02.713Z,3.87
2018-06-24T20:15:31.738Z,3.85
2018-06-24T20:18:01.317Z,5.65
2018-06-24T20:20:30.399Z,3.15
2018-06-24T20:22:59.666Z,3.67
2018-06-24T20:25:28.808Z,4.05
2018-06-24T20:27:57.853Z,7.70
2018-06-24T20:30:26.951Z,4.33
2018-06-24T20:32:55.935Z,3.62
2018-06-24T20:35:24.899Z,3.55
2018-06-24T20:37:53.941Z,5.10
2018-06-24T20:40:22.960Z,6.10
2018-06-24T20:42:52.216Z,5.47
2018-06-24T20:45:21.146Z,7.97
2018-06-24T20:47:50.206Z,8.20
2018-06-24T20:50:19.634Z,6.30
2018-06-24T20:52:48.773Z,9.08
2018-06-24T20:55:17.377Z,7.58
2018-06-24T20:57:46.491Z,11.97
2018-06-24T21:00:15.426Z,10.15
2018-06-24T21:02:44.431Z,11.85
2018-06-24T21:05:13.491Z,9.10
2018-06-24T21:07:42.660Z,9.48
2018-06-24T21:10:11.795Z,11.60
2018-06-24T21:12:41.325Z,10.58
2018-06-24T21:15:09.888Z,10.38
2018-06-24T21:17:38.811Z,11.43
2018-06-24T21:20:07.843Z,9.60
2018-06-24T21:22:36.852Z,10.18
2018-06-24T21:25:06.474Z,10.63
2018-06-24T21:27:35.419Z,8.20
2018-06-24T21:30:04.654Z,8.98
2018-06-24T21:32:33.600Z,10.80
2018-06-24T21:35:02.544Z,9.28
2018-06-24T21:37:32.089Z,7.35
2018-06-24T21:40:01.585Z,6.15
2018-06-24T21:42:31.856Z,4.28
2018-06-24T21:45:01.292Z,4.08
2018-06-24T21:47:30.333Z,4.75
2018-06-24T21:49:59.243Z,5.08
2018-06-24T21:52:28.344Z,4.15
2018-06-24T21:54:57.377Z,4.65
2018-06-24T21:57:26.507Z,4.92
2018-06-24T21:59:59.008Z,4.05
2018-06-24T22:02:28.684Z,5.33
2018-06-24T22:04:58.332Z,6.55
2018-06-24T22:07:27.310Z,4.33
2018-06-24T22:09:56.500Z,4.30
2018-06-24T22:12:25.545Z,4.58
2018-06-24T22:14:54.577Z,4.10
2018-06-24T22:17:24.229Z,4.35
2018-06-24T22:19:53.353Z,7.03
2018-06-24T22:22:22.367Z,7.58
2018-06-24T22:24:51.334Z,6.17
2018-06-24T22:27:20.333Z,5.33
2018-06-24T22:29:49.268Z,8.33
2018-06-24T22:32:18.243Z,6.17
2018-06-24T22:34:47.622Z,5.62
2018-06-24T22:37:16.631Z,7.22
2018-06-24T22:39:45.592Z,7.03
2018-06-24T22:42:14.554Z,6.50
2018-06-24T22:44:43.527Z,7.75
2018-06-24T22:47:12.525Z,6.15
2018-06-24T22:49:41.475Z,4.90
2018-06-24T22:52:10.011Z,6.28
2018-06-24T22:54:38.940Z,5.58
2018-06-24T22:57:07.892Z,5.22
2018-06-24T23:00:15.237Z,7.35
2018-06-24T23:02:44.750Z,4.08
2018-06-24T23:05:14.200Z,6.83
2018-06-24T23:07:44.236Z,5.85
2018-06-24T23:10:13.742Z,4.60
2018-06-24T23:12:42.975Z,4.80
2018-06-24T23:15:12.520Z,6.92
2018-06-24T23:17:41.501Z,6.30
2018-06-24T23:20:10.525Z,7.28
2018-06-24T23:22:39.464Z,5.90
2018-06-24T23:25:08.439Z,5.28
2018-06-24T23:27:37.388Z,6.00
2018-06-24T23:30:06.812Z,5.35
2018-06-24T23:32:35.719Z,5.17
2018-06-24T23:35:05.265Z,5.55
2018-06-24T23:37:34.183Z,6.67
2018-06-24T23:40:03.163Z,6.12
2018-06-24T23:42:31.715Z,11.18
2018-06-24T23:45:00.722Z,11.00
2018-06-24T23:47:29.701Z,14.73
2018-06-24T23:49:59.172Z,16.57
2018-06-24T23:52:28.159Z,20.68
2018-06-24T23:54:57.104Z,20.62
2018-06-24T23:57:26.061Z,19.37
2018-06-24T23:59:55.007Z,17.23
